sensor_id;sensor_type;location;lat;lon;timestamp;P1;durP1;ratioP1;P2;durP2;ratioP2
76167;SDS011;64927;48.214;16.378;2024-01-10T00:02:13;19.73;;;9.82;;
76167;SDS011;64927;48.214;16.378;2024-01-10T00:04:39;19.38;;;9.80;;
76167;SDS011;64927;48.214;16.378;2024-01-10T00:07:04;21.08;;;10.20;;
76167;SDS011;64927;48.214;16.378;2024-01-10T00:09:30;16.30;;;9.90;;
76167;SDS011;64927;48.214;16.378;2024-01-10T00:11:55;18.20;;;10.40;;
76167;SDS011;64927;48.214;16.378;2024-01-10T00:17:56;17.00;;;8.27;;
76167;SDS011;64927;48.214;16.378;2024-01-10T00:20:24;15.15;;;8.63;;
76167;SDS011;64927;48.214;16.378;2024-01-10T00:22:50;29.83;;;11.00;;
76167;SDS011;64927;48.214;16.378;2024-01-10T00:25:15;21.23;;;8.95;;
76167;SDS011;64927;48.214;16.378;2024-01-10T00:27:43;22.95;;;12.35;;
76167;SDS011;64927;48.214;16.378;2024-01-10T00:30:11;14.88;;;8.45;;
76167;SDS011;64927;48.214;16.378;2024-01-10T00:32:37;26.17;;;9.85;;
76167;SDS011;64927;48.214;16.378;2024-01-10T00:35:05;23.40;;;12.13;;
76167;SDS011;64927;48.214;16.378;2024-01-10T00:37:35;19.73;;;9.68;;
76167;SDS011;64927;48.214;16.378;2024-01-10T00:40:01;24.42;;;10.82;;
76167;SDS011;64927;48.214;16.378;2024-01-10T00:42:26;32.58;;;9.57;;
76167;SDS011;64927;48.214;16.378;2024-01-10T00:44:52;19.70;;;11.65;;
76167;SDS011;64927;48.214;16.378;2024-01-10T00:47:18;19.02;;;8.68;;
76167;SDS011;64927;48.214;16.378;2024-01-10T00:49:43;20.13;;;10.65;;
76167;SDS011;64927;48.214;16.378;2024-01-10T00:52:09;22.13;;;11.60;;
76167;SDS011;64927;48.214;16.378;2024-01-10T00:54:35;17.30;;;9.80;;
76167;SDS011;64927;48.214;16.378;2024-01-10T00:57:04;16.88;;;10.32;;
76167;SDS011;64927;48.214;16.378;2024-01-10T00:59:30;20.20;;;10.40;;
76167;SDS011;64927;48.214;16.378;2024-01-10T01:01:56;15.95;;;9.13;;
76167;SDS011;64927;48.214;16.378;2024-01-10T01:04:22;20.83;;;10.13;;
76167;SDS011;64927;48.214;16.378;2024-01-10T01:06:49;16.77;;;9.50;;
76167;SDS011;64927;48.214;16.378;2024-01-10T01:09:15;19.98;;;10.05;;
76167;SDS011;64927;48.214;16.378;2024-01-10T01:11:41;21.80;;;9.82;;
76167;SDS011;64927;48.214;16.378;2024-01-10T01:14:07;14.88;;;9.38;;
76167;SDS011;64927;48.214;16.378;2024-01-10T01:16:33;24.58;;;11.73;;
76167;SDS011;64927;48.214;16.378;2024-01-10T01:18:59;26.70;;;13.27;;
76167;SDS011;64927;48.214;16.378;2024-01-10T01:21:26;18.90;;;8.60;;
76167;SDS011;64927;48.214;16.378;2024-01-10T01:23:54;19.10;;;9.68;;
76167;SDS011;64927;48.214;16.378;2024-01-10T01:26:20;20.08;;;11.07;;
76167;SDS011;64927;48.214;16.378;2024-01-10T01:28:46;17.27;;;8.60;;
76167;SDS011;64927;48.214;16.378;2024-01-10T01:31:11;15.57;;;9.50;;
76167;SDS011;64927;48.214;16.378;2024-01-10T01:33:39;15.55;;;8.63;;
76167;SDS011;64927;48.214;16.378;2024-01-10T01:36:05;19.85;;;7.40;;
76167;SDS011;64927;48.214;16.378;2024-01-10T01:38:32;23.27;;;12.27;;
76167;SDS011;64927;48.214;16.378;2024-01-10T01:40:58;23.13;;;11.82;;
76167;SDS011;64927;48.214;16.378;2024-01-10T01:43:25;20.48;;;10.52;;
76167;SDS011;64927;48.214;16.378;2024-01-10T01:45:54;26.25;;;9.35;;
76167;SDS011;64927;48.214;16.378;2024-01-10T01:48:23;24.80;;;8.48;;
76167;SDS011;64927;48.214;16.378;2024-01-10T01:51:06;15.35;;;8.13;;
76167;SDS011;64927;48.214;16.378;2024-01-10T01:53:36;14.07;;;8.95;;
76167;SDS011;64927;48.214;16.378;2024-01-10T01:56:07;24.30;;;9.32;;
76167;SDS011;64927;48.214;16.378;2024-01-10T01:58:37;18.55;;;9.65;;
76167;SDS011;64927;48.214;16.378;2024-01-10T02:01:04;18.13;;;11.38;;
76167;SDS011;64927;48.214;16.378;2024-01-10T02:03:33;22.77;;;8.55;;
76167;SDS011;64927;48.214;16.378;2024-01-10T02:05:59;17.63;;;10.75;;
76167;SDS011;64927;48.214;16.378;2024-01-10T02:08:29;26.50;;;11.52;;
76167;SDS011;64927;48.214;16.378;2024-01-10T02:10:56;13.85;;;8.25;;
76167;SDS011;64927;48.214;16.378;2024-01-10T02:13:22;18.63;;;11.13;;
76167;SDS011;64927;48.214;16.378;2024-01-10T02:15:48;23.38;;;11.10;;
76167;SDS011;64927;48.214;16.378;2024-01-10T02:18:13;19.85;;;10.77;;
76167;SDS011;64927;48.214;16.378;2024-01-10T02:20:42;23.80;;;10.65;;
76167;SDS011;64927;48.214;16.378;2024-01-10T02:23:08;26.88;;;12.05;;
76167;SDS011;64927;48.214;16.378;2024-01-10T02:25:37;21.75;;;9.65;;
76167;SDS011;64927;48.214;16.378;2024-01-10T02:28:04;20.42;;;10.23;;
76167;SDS011;64927;48.214;16.378;2024-01-10T02:30:30;19.23;;;9.73;;
76167;SDS011;64927;48.214;16.378;2024-01-10T02:32:58;23.42;;;10.35;;
76167;SDS011;64927;48.214;16.378;2024-01-10T02:35:24;19.77;;;10.82;;
76167;SDS011;64927;48.214;16.378;2024-01-10T02:37:52;14.27;;;9.32;;
76167;SDS011;64927;48.214;16.378;2024-01-10T02:40:19;19.27;;;9.10;;
76167;SDS011;64927;48.214;16.378;2024-01-10T02:42:45;20.58;;;12.07;;
76167;SDS011;64927;48.214;16.378;2024-01-10T02:45:10;29.23;;;12.95;;
76167;SDS011;64927;48.214;16.378;2024-01-10T02:47:36;16.15;;;8.98;;
76167;SDS011;64927;48.214;16.378;2024-01-10T02:50:03;14.32;;;8.05;;
76167;SDS011;64927;48.214;16.378;2024-01-10T02:52:29;23.83;;;11.45;;
76167;SDS011;64927;48.214;16.378;2024-01-10T02:54:55;35.25;;;13.30;;
76167;SDS011;64927;48.214;16.378;2024-01-10T02:57:23;18.15;;;10.52;;
76167;SDS011;64927;48.214;16.378;2024-01-10T02:59:49;18.60;;;10.95;;
76167;SDS011;64927;48.214;16.378;2024-01-10T03:02:15;15.27;;;10.15;;
76167;SDS011;64927;48.214;16.378;2024-01-10T03:04:43;28.92;;;13.38;;
76167;SDS011;64927;48.214;16.378;2024-01-10T03:07:09;19.88;;;10.95;;
76167;SDS011;64927;48.214;16.378;2024-01-10T03:09:37;24.75;;;11.25;;
76167;SDS011;64927;48.214;16.378;2024-01-10T03:12:03;22.08;;;10.57;;
76167;SDS011;64927;48.214;16.378;2024-01-10T03:14:29;25.10;;;12.45;;
76167;SDS011;64927;48.214;16.378;2024-01-10T03:16:57;17.67;;;11.50;;
76167;SDS011;64927;48.214;16.378;2024-01-10T03:19:23;20.98;;;9.55;;
76167;SDS011;64927;48.214;16.378;2024-01-10T03:21:49;25.63;;;13.70;;
76167;SDS011;64927;48.214;16.378;2024-01-10T03:24:14;23.60;;;11.95;;
76167;SDS011;64927;48.214;16.378;2024-01-10T03:26:43;25.65;;;11.52;;
76167;SDS011;64927;48.214;16.378;2024-01-10T03:29:08;24.42;;;11.35;;
76167;SDS011;64927;48.214;16.378;2024-01-10T03:31:34;28.65;;;13.38;;
76167;SDS011;64927;48.214;16.378;2024-01-10T03:33:59;26.55;;;12.60;;
76167;SDS011;64927;48.214;16.378;2024-01-10T03:36:25;33.25;;;13.20;;
76167;SDS011;64927;48.214;16.378;2024-01-10T03:38:51;33.28;;;12.10;;
76167;SDS011;64927;48.214;16.378;2024-01-10T03:41:20;22.42;;;10.73;;
76167;SDS011;64927;48.214;16.378;2024-01-10T03:43:46;21.83;;;13.23;;
76167;SDS011;64927;48.214;16.378;2024-01-10T03:46:12;24.63;;;13.95;;
76167;SDS011;64927;48.214;16.378;2024-01-10T03:48:38;15.95;;;11.40;;
76167;SDS011;64927;48.214;16.378;2024-01-10T03:51:12;25.40;;;11.00;;
76167;SDS011;64927;48.214;16.378;2024-01-10T03:53:39;19.92;;;10.77;;
76167;SDS011;64927;48.214;16.378;2024-01-10T03:56:05;29.60;;;11.32;;
76167;SDS011;64927;48.214;16.378;2024-01-10T03:58:31;19.65;;;8.82;;
76167;SDS011;64927;48.214;16.378;2024-01-10T04:01:03;24.85;;;11.80;;
76167;SDS011;64927;48.214;16.378;2024-01-10T04:03:31;18.63;;;10.02;;
76167;SDS011;64927;48.214;16.378;2024-01-10T04:05:56;19.95;;;12.25;;
76167;SDS011;64927;48.214;16.378;2024-01-10T04:08:22;34.17;;;12.57;;
76167;SDS011;64927;48.214;16.378;2024-01-10T04:10:47;31.85;;;14.48;;
76167;SDS011;64927;48.214;16.378;2024-01-10T04:13:13;30.30;;;11.35;;
76167;SDS011;64927;48.214;16.378;2024-01-10T04:15:38;30.45;;;14.88;;
76167;SDS011;64927;48.214;16.378;2024-01-10T04:18:04;15.55;;;9.38;;
76167;SDS011;64927;48.214;16.378;2024-01-10T04:20:32;26.58;;;14.00;;
76167;SDS011;64927;48.214;16.378;2024-01-10T04:23:00;22.45;;;14.48;;
76167;SDS011;64927;48.214;16.378;2024-01-10T04:25:26;24.83;;;11.65;;
76167;SDS011;64927;48.214;16.378;2024-01-10T04:27:54;21.40;;;10.43;;
76167;SDS011;64927;48.214;16.378;2024-01-10T04:30:24;15.95;;;10.52;;
76167;SDS011;64927;48.214;16.378;2024-01-10T04:32:52;26.88;;;15.23;;
76167;SDS011;64927;48.214;16.378;2024-01-10T04:35:18;32.55;;;12.55;;
76167;SDS011;64927;48.214;16.378;2024-01-10T04:37:44;29.55;;;14.40;;
76167;SDS011;64927;48.214;16.378;2024-01-10T04:40:10;18.15;;;8.35;;
76167;SDS011;64927;48.214;16.378;2024-01-10T04:42:36;39.60;;;14.07;;
76167;SDS011;64927;48.214;16.378;2024-01-10T04:45:01;22.05;;;10.80;;
76167;SDS011;64927;48.214;16.378;2024-01-10T04:47:27;28.02;;;12.30;;
76167;SDS011;64927;48.214;16.378;2024-01-10T04:49:53;26.75;;;14.75;;
76167;SDS011;64927;48.214;16.378;2024-01-10T04:52:18;30.23;;;13.90;;
76167;SDS011;64927;48.214;16.378;2024-01-10T04:54:44;22.05;;;12.65;;
76167;SDS011;64927;48.214;16.378;2024-01-10T04:57:09;29.15;;;15.70;;
76167;SDS011;64927;48.214;16.378;2024-01-10T04:59:35;17.00;;;11.30;;
76167;SDS011;64927;48.214;16.378;2024-01-10T05:02:01;30.85;;;14.77;;
76167;SDS011;64927;48.214;16.378;2024-01-10T05:04:29;25.92;;;11.13;;
76167;SDS011;64927;48.214;16.378;2024-01-10T05:06:55;21.05;;;12.05;;
76167;SDS011;64927;48.214;16.378;2024-01-10T05:09:20;26.17;;;14.80;;
76167;SDS011;64927;48.214;16.378;2024-01-10T05:11:48;21.05;;;12.05;;
76167;SDS011;64927;48.214;16.378;2024-01-10T05:14:16;29.95;;;14.93;;
76167;SDS011;64927;48.214;16.378;2024-01-10T05:16:44;18.85;;;9.98;;
76167;SDS011;64927;48.214;16.378;2024-01-10T05:19:10;30.33;;;15.00;;
76167;SDS011;64927;48.214;16.378;2024-01-10T05:21:38;26.10;;;14.60;;
76167;SDS011;64927;48.214;16.378;2024-01-10T05:24:04;21.50;;;10.30;;
76167;SDS011;64927;48.214;16.378;2024-01-10T05:26:33;34.53;;;12.27;;
76167;SDS011;64927;48.214;16.378;2024-01-10T05:28:58;46.05;;;15.60;;
76167;SDS011;64927;48.214;16.378;2024-01-10T05:31:24;25.88;;;12.38;;
76167;SDS011;64927;48.214;16.378;2024-01-10T05:33:52;33.47;;;15.27;;
76167;SDS011;64927;48.214;16.378;2024-01-10T05:36:18;30.20;;;11.90;;
76167;SDS011;64927;48.214;16.378;2024-01-10T05:38:47;30.23;;;12.18;;
76167;SDS011;64927;48.214;16.378;2024-01-10T05:41:13;35.90;;;13.45;;
76167;SDS011;64927;48.214;16.378;2024-01-10T05:43:39;32.42;;;14.05;;
76167;SDS011;64927;48.214;16.378;2024-01-10T05:46:05;28.48;;;11.43;;
76167;SDS011;64927;48.214;16.378;2024-01-10T05:48:30;37.95;;;16.38;;
76167;SDS011;64927;48.214;16.378;2024-01-10T05:50:57;26.70;;;15.95;;
76167;SDS011;64927;48.214;16.378;2024-01-10T05:53:23;30.25;;;12.88;;
76167;SDS011;64927;48.214;16.378;2024-01-10T05:55:51;26.88;;;11.57;;
76167;SDS011;64927;48.214;16.378;2024-01-10T05:58:17;24.88;;;13.75;;
76167;SDS011;64927;48.214;16.378;2024-01-10T06:00:45;41.30;;;13.85;;
76167;SDS011;64927;48.214;16.378;2024-01-10T06:03:11;20.05;;;11.10;;
76167;SDS011;64927;48.214;16.378;2024-01-10T06:05:39;36.88;;;14.90;;
76167;SDS011;64927;48.214;16.378;2024-01-10T06:08:04;35.00;;;12.63;;
76167;SDS011;64927;48.214;16.378;2024-01-10T06:10:30;35.03;;;15.23;;
76167;SDS011;64927;48.214;16.378;2024-01-10T06:12:56;18.73;;;10.25;;
76167;SDS011;64927;48.214;16.378;2024-01-10T06:15:22;28.92;;;13.05;;
76167;SDS011;64927;48.214;16.378;2024-01-10T06:17:47;34.67;;;15.95;;
76167;SDS011;64927;48.214;16.378;2024-01-10T06:20:15;23.80;;;12.60;;
76167;SDS011;64927;48.214;16.378;2024-01-10T06:22:42;27.23;;;14.18;;
76167;SDS011;64927;48.214;16.378;2024-01-10T06:25:08;42.08;;;18.33;;
76167;SDS011;64927;48.214;16.378;2024-01-10T06:27:33;29.38;;;14.25;;
76167;SDS011;64927;48.214;16.378;2024-01-10T06:30:02;21.15;;;11.68;;
76167;SDS011;64927;48.214;16.378;2024-01-10T06:32:28;26.52;;;13.30;;
76167;SDS011;64927;48.214;16.378;2024-01-10T06:34:53;30.20;;;12.75;;
76167;SDS011;64927;48.214;16.378;2024-01-10T06:37:19;34.97;;;13.07;;
76167;SDS011;64927;48.214;16.378;2024-01-10T06:39:44;20.05;;;9.57;;
76167;SDS011;64927;48.214;16.378;2024-01-10T06:42:10;22.73;;;12.10;;
76167;SDS011;64927;48.214;16.378;2024-01-10T06:44:36;29.63;;;13.07;;
76167;SDS011;64927;48.214;16.378;2024-01-10T06:47:02;37.65;;;15.15;;
76167;SDS011;64927;48.214;16.378;2024-01-10T06:49:29;29.30;;;12.63;;
76167;SDS011;64927;48.214;16.378;2024-01-10T06:51:54;25.58;;;10.30;;
76167;SDS011;64927;48.214;16.378;2024-01-10T06:54:20;23.75;;;11.10;;
76167;SDS011;64927;48.214;16.378;2024-01-10T06:56:46;32.75;;;12.38;;
76167;SDS011;64927;48.214;16.378;2024-01-10T06:59:11;19.45;;;10.23;;
76167;SDS011;64927;48.214;16.378;2024-01-10T07:01:37;18.52;;;10.73;;
76167;SDS011;64927;48.214;16.378;2024-01-10T07:04:04;19.85;;;11.82;;
76167;SDS011;64927;48.214;16.378;2024-01-10T07:06:30;27.15;;;12.93;;
76167;SDS011;64927;48.214;16.378;2024-01-10T07:08:56;31.55;;;11.88;;
76167;SDS011;64927;48.214;16.378;2024-01-10T07:11:23;25.80;;;13.30;;
76167;SDS011;64927;48.214;16.378;2024-01-10T07:13:51;22.92;;;10.98;;
76167;SDS011;64927;48.214;16.378;2024-01-10T07:16:17;26.48;;;10.43;;
76167;SDS011;64927;48.214;16.378;2024-01-10T07:18:43;16.30;;;11.35;;
76167;SDS011;64927;48.214;16.378;2024-01-10T07:21:12;24.75;;;10.65;;
76167;SDS011;64927;48.214;16.378;2024-01-10T07:23:37;26.75;;;10.98;;
76167;SDS011;64927;48.214;16.378;2024-01-10T07:26:05;30.75;;;12.23;;
76167;SDS011;64927;48.214;16.378;2024-01-10T07:28:31;27.60;;;13.93;;
76167;SDS011;64927;48.214;16.378;2024-01-10T07:30:57;31.10;;;15.38;;
76167;SDS011;64927;48.214;16.378;2024-01-10T07:33:23;25.30;;;11.25;;
76167;SDS011;64927;48.214;16.378;2024-01-10T07:35:48;28.23;;;13.15;;
76167;SDS011;64927;48.214;16.378;2024-01-10T07:38:14;21.95;;;11.20;;
76167;SDS011;64927;48.214;16.378;2024-01-10T07:40:42;23.35;;;12.50;;
76167;SDS011;64927;48.214;16.378;2024-01-10T07:43:07;27.20;;;13.10;;
76167;SDS011;64927;48.214;16.378;2024-01-10T07:45:33;21.15;;;9.93;;
76167;SDS011;64927;48.214;16.378;2024-01-10T07:47:59;19.15;;;10.13;;
76167;SDS011;64927;48.214;16.378;2024-01-10T07:50:25;32.55;;;13.80;;
76167;SDS011;64927;48.214;16.378;2024-01-10T07:52:52;29.73;;;11.10;;
76167;SDS011;64927;48.214;16.378;2024-01-10T07:55:18;33.75;;;14.20;;
76167;SDS011;64927;48.214;16.378;2024-01-10T07:57:44;21.40;;;12.10;;
76167;SDS011;64927;48.214;16.378;2024-01-10T08:00:09;23.38;;;11.23;;
76167;SDS011;64927;48.214;16.378;2024-01-10T08:02:38;22.23;;;11.48;;
76167;SDS011;64927;48.214;16.378;2024-01-10T08:05:05;23.63;;;10.68;;
76167;SDS011;64927;48.214;16.378;2024-01-10T08:07:38;22.08;;;12.10;;
76167;SDS011;64927;48.214;16.378;2024-01-10T08:10:07;27.63;;;13.68;;
76167;SDS011;64927;48.214;16.378;2024-01-10T08:12:34;23.75;;;11.75;;
76167;SDS011;64927;48.214;16.378;2024-01-10T08:15:12;14.52;;;9.43;;
76167;SDS011;64927;48.214;16.378;2024-01-10T08:17:40;28.98;;;12.63;;
76167;SDS011;64927;48.214;16.378;2024-01-10T08:20:07;31.20;;;11.45;;
76167;SDS011;64927;48.214;16.378;2024-01-10T08:22:33;20.85;;;11.98;;
76167;SDS011;64927;48.214;16.378;2024-01-10T08:24:59;24.25;;;13.18;;
76167;SDS011;64927;48.214;16.378;2024-01-10T08:27:24;22.15;;;11.40;;
76167;SDS011;64927;48.214;16.378;2024-01-10T08:29:52;31.33;;;10.10;;
76167;SDS011;64927;48.214;16.378;2024-01-10T08:32:20;21.17;;;10.38;;
76167;SDS011;64927;48.214;16.378;2024-01-10T08:34:49;22.27;;;12.48;;
76167;SDS011;64927;48.214;16.378;2024-01-10T08:37:14;18.30;;;8.52;;
76167;SDS011;64927;48.214;16.378;2024-01-10T08:39:42;33.92;;;11.98;;
76167;SDS011;64927;48.214;16.378;2024-01-10T08:42:09;24.38;;;12.35;;
76167;SDS011;64927;48.214;16.378;2024-01-10T08:44:35;21.83;;;11.00;;
76167;SDS011;64927;48.214;16.378;2024-01-10T08:47:01;26.00;;;10.02;;
76167;SDS011;64927;48.214;16.378;2024-01-10T08:49:26;36.20;;;15.32;;
76167;SDS011;64927;48.214;16.378;2024-01-10T08:51:52;31.98;;;12.65;;
76167;SDS011;64927;48.214;16.378;2024-01-10T08:54:18;22.63;;;10.82;;
76167;SDS011;64927;48.214;16.378;2024-01-10T08:56:45;24.85;;;11.68;;
76167;SDS011;64927;48.214;16.378;2024-01-10T08:59:11;33.53;;;12.10;;
76167;SDS011;64927;48.214;16.378;2024-01-10T09:01:39;26.98;;;11.75;;
76167;SDS011;64927;48.214;16.378;2024-01-10T09:04:05;18.17;;;9.02;;
76167;SDS011;64927;48.214;16.378;2024-01-10T09:06:31;29.13;;;12.98;;
76167;SDS011;64927;48.214;16.378;2024-01-10T09:08:57;25.15;;;11.38;;
76167;SDS011;64927;48.214;16.378;2024-01-10T09:11:23;21.20;;;10.50;;
76167;SDS011;64927;48.214;16.378;2024-01-10T09:13:49;14.38;;;9.23;;
76167;SDS011;64927;48.214;16.378;2024-01-10T09:16:16;32.55;;;13.65;;
76167;SDS011;64927;48.214;16.378;2024-01-10T09:18:43;21.17;;;11.90;;
76167;SDS011;64927;48.214;16.378;2024-01-10T09:21:09;27.60;;;11.02;;
76167;SDS011;64927;48.214;16.378;2024-01-10T09:23:35;25.48;;;10.60;;
76167;SDS011;64927;48.214;16.378;2024-01-10T09:26:02;21.90;;;10.75;;
76167;SDS011;64927;48.214;16.378;2024-01-10T09:28:27;21.77;;;11.52;;
76167;SDS011;64927;48.214;16.378;2024-01-10T09:30:53;19.90;;;9.93;;
76167;SDS011;64927;48.214;16.378;2024-01-10T09:33:19;23.38;;;10.27;;
76167;SDS011;64927;48.214;16.378;2024-01-10T09:35:45;31.48;;;12.65;;
76167;SDS011;64927;48.214;16.378;2024-01-10T09:38:10;41.67;;;12.30;;
76167;SDS011;64927;48.214;16.378;2024-01-10T09:40:36;20.48;;;10.90;;
76167;SDS011;64927;48.214;16.378;2024-01-10T09:43:05;25.30;;;12.15;;
76167;SDS011;64927;48.214;16.378;2024-01-10T09:45:34;25.05;;;11.40;;
76167;SDS011;64927;48.214;16.378;2024-01-10T09:48:01;23.02;;;11.32;;
76167;SDS011;64927;48.214;16.378;2024-01-10T09:50:31;25.77;;;9.73;;
76167;SDS011;64927;48.214;16.378;2024-01-10T09:52:58;18.75;;;10.80;;
76167;SDS011;64927;48.214;16.378;2024-01-10T09:55:34;22.15;;;10.30;;
76167;SDS011;64927;48.214;16.378;2024-01-10T09:58:10;30.60;;;10.88;;
76167;SDS011;64927;48.214;16.378;2024-01-10T10:00:35;37.25;;;13.88;;
76167;SDS011;64927;48.214;16.378;2024-01-10T10:03:01;23.42;;;11.35;;
76167;SDS011;64927;48.214;16.378;2024-01-10T10:05:29;30.50;;;10.38;;
76167;SDS011;64927;48.214;16.378;2024-01-10T10:07:55;19.45;;;8.32;;
76167;SDS011;64927;48.214;16.378;2024-01-10T10:10:25;26.17;;;12.30;;
76167;SDS011;64927;48.214;16.378;2024-01-10T10:12:52;24.67;;;10.10;;
76167;SDS011;64927;48.214;16.378;2024-01-10T10:15:22;27.05;;;12.40;;
76167;SDS011;64927;48.214;16.378;2024-01-10T10:17:49;20.73;;;8.73;;
76167;SDS011;64927;48.214;16.378;2024-01-10T10:22:59;23.75;;;12.07;;
76167;SDS011;64927;48.214;16.378;2024-01-10T10:25:27;20.27;;;9.85;;
76167;SDS011;64927;48.214;16.378;2024-01-10T10:27:56;27.17;;;11.13;;
76167;SDS011;64927;48.214;16.378;2024-01-10T10:30:21;23.08;;;10.13;;
76167;SDS011;64927;48.214;16.378;2024-01-10T10:32:47;24.80;;;12.60;;
76167;SDS011;64927;48.214;16.378;2024-01-10T10:35:13;17.13;;;8.73;;
76167;SDS011;64927;48.214;16.378;2024-01-10T10:37:41;26.55;;;10.63;;
76167;SDS011;64927;48.214;16.378;2024-01-10T10:40:07;21.83;;;10.57;;
76167;SDS011;64927;48.214;16.378;2024-01-10T10:42:36;25.90;;;11.95;;
76167;SDS011;64927;48.214;16.378;2024-01-10T10:45:09;20.35;;;10.63;;
76167;SDS011;64927;48.214;16.378;2024-01-10T10:47:39;18.55;;;10.07;;
76167;SDS011;64927;48.214;16.378;2024-01-10T10:50:09;25.98;;;11.77;;
76167;SDS011;64927;48.214;16.378;2024-01-10T10:52:47;25.23;;;10.50;;
76167;SDS011;64927;48.214;16.378;2024-01-10T10:55:14;34.50;;;10.13;;
76167;SDS011;64927;48.214;16.378;2024-01-10T10:57:44;22.27;;;10.88;;
76167;SDS011;64927;48.214;16.378;2024-01-10T11:00:15;21.27;;;9.38;;
76167;SDS011;64927;48.214;16.378;2024-01-10T11:02:44;18.65;;;7.63;;
76167;SDS011;64927;48.214;16.378;2024-01-10T11:05:10;15.38;;;8.68;;
76167;SDS011;64927;48.214;16.378;2024-01-10T11:07:36;26.23;;;9.27;;
76167;SDS011;64927;48.214;16.378;2024-01-10T11:10:17;15.30;;;6.35;;
76167;SDS011;64927;48.214;16.378;2024-01-10T11:21:44;21.58;;;6.20;;
76167;SDS011;64927;48.214;16.378;2024-01-10T11:24:23;19.02;;;8.38;;
76167;SDS011;64927;48.214;16.378;2024-01-10T11:26:49;16.50;;;7.60;;
76167;SDS011;64927;48.214;16.378;2024-01-10T11:29:30;16.85;;;7.63;;
76167;SDS011;64927;48.214;16.378;2024-01-10T11:31:56;18.45;;;8.10;;
76167;SDS011;64927;48.214;16.378;2024-01-10T11:34:24;18.00;;;7.15;;
76167;SDS011;64927;48.214;16.378;2024-01-10T11:37:10;13.23;;;6.97;;
76167;SDS011;64927;48.214;16.378;2024-01-10T11:39:37;18.00;;;8.55;;
76167;SDS011;64927;48.214;16.378;2024-01-10T11:42:07;17.73;;;7.75;;
76167;SDS011;64927;48.214;16.378;2024-01-10T11:44:34;16.20;;;7.80;;
76167;SDS011;64927;48.214;16.378;2024-01-10T11:47:11;14.95;;;8.10;;
76167;SDS011;64927;48.214;16.378;2024-01-10T11:49:39;12.93;;;8.13;;
76167;SDS011;64927;48.214;16.378;2024-01-10T11:52:05;15.98;;;7.82;;
76167;SDS011;64927;48.214;16.378;2024-01-10T11:54:34;13.50;;;6.22;;
76167;SDS011;64927;48.214;16.378;2024-01-10T11:59:40;17.08;;;6.68;;
76167;SDS011;64927;48.214;16.378;2024-01-10T12:02:08;12.50;;;7.00;;
76167;SDS011;64927;48.214;16.378;2024-01-10T12:04:34;13.88;;;6.00;;
76167;SDS011;64927;48.214;16.378;2024-01-10T12:07:01;16.73;;;7.53;;
76167;SDS011;64927;48.214;16.378;2024-01-10T12:09:28;23.45;;;8.45;;
76167;SDS011;64927;48.214;16.378;2024-01-10T12:11:55;13.63;;;7.40;;
76167;SDS011;64927;48.214;16.378;2024-01-10T12:14:21;14.23;;;7.18;;
76167;SDS011;64927;48.214;16.378;2024-01-10T12:16:48;18.08;;;8.32;;
76167;SDS011;64927;48.214;16.378;2024-01-10T12:19:15;10.02;;;6.05;;
76167;SDS011;64927;48.214;16.378;2024-01-10T12:21:41;11.68;;;6.47;;
76167;SDS011;64927;48.214;16.378;2024-01-10T12:24:06;12.57;;;7.30;;
76167;SDS011;64927;48.214;16.378;2024-01-10T12:26:32;12.27;;;6.57;;
76167;SDS011;64927;48.214;16.378;2024-01-10T12:28:58;14.85;;;7.40;;
76167;SDS011;64927;48.214;16.378;2024-01-10T12:31:29;15.40;;;7.75;;
76167;SDS011;64927;48.214;16.378;2024-01-10T12:33:56;14.63;;;6.70;;
76167;SDS011;64927;48.214;16.378;2024-01-10T12:36:21;12.77;;;6.05;;
76167;SDS011;64927;48.214;16.378;2024-01-10T12:38:47;12.98;;;5.97;;
76167;SDS011;64927;48.214;16.378;2024-01-10T12:41:17;16.35;;;7.13;;
76167;SDS011;64927;48.214;16.378;2024-01-10T12:43:53;11.18;;;5.68;;
76167;SDS011;64927;48.214;16.378;2024-01-10T12:46:22;13.25;;;6.40;;
76167;SDS011;64927;48.214;16.378;2024-01-10T12:53:53;21.70;;;6.28;;
76167;SDS011;64927;48.214;16.378;2024-01-10T12:56:21;19.23;;;6.47;;
76167;SDS011;64927;48.214;16.378;2024-01-10T12:58:47;11.52;;;6.53;;
76167;SDS011;64927;48.214;16.378;2024-01-10T13:01:12;9.35;;;6.82;;
76167;SDS011;64927;48.214;16.378;2024-01-10T13:03:38;11.45;;;5.72;;
76167;SDS011;64927;48.214;16.378;2024-01-10T13:06:04;13.50;;;7.65;;
76167;SDS011;64927;48.214;16.378;2024-01-10T13:08:30;17.20;;;8.10;;
76167;SDS011;64927;48.214;16.378;2024-01-10T13:11:01;16.05;;;6.82;;
76167;SDS011;64927;48.214;16.378;2024-01-10T13:13:34;17.73;;;8.25;;
76167;SDS011;64927;48.214;16.378;2024-01-10T13:16:00;21.00;;;8.18;;
76167;SDS011;64927;48.214;16.378;2024-01-10T13:18:26;15.63;;;8.32;;
76167;SDS011;64927;48.214;16.378;2024-01-10T13:20:53;11.13;;;8.07;;
76167;SDS011;64927;48.214;16.378;2024-01-10T13:23:22;15.13;;;7.20;;
76167;SDS011;64927;48.214;16.378;2024-01-10T13:25:49;21.58;;;7.50;;
76167;SDS011;64927;48.214;16.378;2024-01-10T13:28:20;18.88;;;8.77;;
76167;SDS011;64927;48.214;16.378;2024-01-10T13:30:50;15.07;;;6.13;;
76167;SDS011;64927;48.214;16.378;2024-01-10T13:33:17;12.25;;;5.60;;
76167;SDS011;64927;48.214;16.378;2024-01-10T13:35:44;14.82;;;5.82;;
76167;SDS011;64927;48.214;16.378;2024-01-10T13:38:10;14.38;;;6.68;;
76167;SDS011;64927;48.214;16.378;2024-01-10T13:40:35;13.00;;;7.07;;
76167;SDS011;64927;48.214;16.378;2024-01-10T13:43:01;12.93;;;7.55;;
76167;SDS011;64927;48.214;16.378;2024-01-10T13:45:27;18.85;;;5.93;;
76167;SDS011;64927;48.214;16.378;2024-01-10T13:47:58;19.85;;;7.05;;
76167;SDS011;64927;48.214;16.378;2024-01-10T13:50:25;11.65;;;7.03;;
76167;SDS011;64927;48.214;16.378;2024-01-10T13:52:55;13.85;;;6.43;;
76167;SDS011;64927;48.214;16.378;2024-01-10T13:55:20;16.08;;;7.60;;
76167;SDS011;64927;48.214;16.378;2024-01-10T13:57:48;12.60;;;6.47;;
76167;SDS011;64927;48.214;16.378;2024-01-10T14:00:14;10.70;;;5.47;;
76167;SDS011;64927;48.214;16.378;2024-01-10T14:02:40;11.13;;;7.00;;
76167;SDS011;64927;48.214;16.378;2024-01-10T14:05:08;12.18;;;6.43;;
76167;SDS011;64927;48.214;16.378;2024-01-10T14:07:35;11.27;;;5.68;;
76167;SDS011;64927;48.214;16.378;2024-01-10T14:10:03;13.05;;;5.80;;
76167;SDS011;64927;48.214;16.378;2024-01-10T14:12:29;17.40;;;6.30;;
76167;SDS011;64927;48.214;16.378;2024-01-10T14:14:55;12.30;;;6.72;;
76167;SDS011;64927;48.214;16.378;2024-01-10T14:17:21;13.13;;;6.30;;
76167;SDS011;64927;48.214;16.378;2024-01-10T14:19:50;11.07;;;6.60;;
76167;SDS011;64927;48.214;16.378;2024-01-10T14:22:16;12.65;;;7.03;;
76167;SDS011;64927;48.214;16.378;2024-01-10T14:24:43;10.60;;;6.07;;
76167;SDS011;64927;48.214;16.378;2024-01-10T14:27:09;11.52;;;5.65;;
76167;SDS011;64927;48.214;16.378;2024-01-10T14:29:34;10.50;;;6.25;;
76167;SDS011;64927;48.214;16.378;2024-01-10T14:32:00;11.88;;;6.10;;
76167;SDS011;64927;48.214;16.378;2024-01-10T14:34:26;9.38;;;5.57;;
76167;SDS011;64927;48.214;16.378;2024-01-10T14:36:52;11.48;;;6.35;;